Strona główna
METAR-TAF:

METAR-TAF

Lotnisko :

Reims, Francja

Szerokość geograficzna: 49-12-31N, Długość geograficzna: 004-09-24E, wysokość: 95 m

Aktualna obserwacja pogody

Raport powstał 24 minut temu, godzina 15:00 UTC
Wiatr 10 kt od północno-północny zachód
Temperatura 16°C
Wilgotność 72%
Ciśnienie 999 hPa
Widzialność 10 km lub więcej

METAR: LFQA 041500Z AUTO 33010KT 9999 FEW020/// SCT041/// BKN052/// ///TCU 16/11 Q0999

czas: 17:24 (15:24 UTC)


TAF: brakujący

Obserwacja i prognoza pogody dla ponad 4000 lotnisk (raport METAR i TAF).

Dostępne stacje oznaczono żółtymi i czerwonymi punktami na mapie.

Najedź kursorem aby zobaczyć nazwę stacji.

Kliknij aby zobaczyć obserwacje i prognozy pogody.

Aby zmienić mapę: kliknij na zielony przycisk z czarnym krzyżykiem, aby powiększyć; na zielony przycisk z myślnikiem, aby pomniejszyć; na zielone strzałki, aby przejść do map sąsiednich.


METAR-TAF: